Beacon packets - map view · info · telemetry · weather · raw · status · beacons · messages · bulletins · browse · moving · my account
Originating callsign:
Show:

Loading beacon packets...

APRS beacon packets are stored for 14 days. It is possible to search using wildcards (*?) after a prefix.

2019-05-21 13:41:10 EDT: W9YF>BEACON: W9YF using TM-261 & KPC-3+; PBBS here @ W9YF-1
2019-05-21 13:41:17 EDT: W5DCR-3>BEACON: W5DCR-YSF*111111z3247.07N/09647.48WrW5DCR 146.960 pl 110.9 -0.6
2019-05-21 13:41:18 EDT: ED6ZAA-3>UIDIGI: UIDIGI 1.9
2019-05-21 13:41:36 EDT: 1>ID: Network Node
2019-05-21 13:41:41 EDT: XE1YD>ID: XE1YD/R
2019-05-21 13:41:51 EDT: SQUAW>BEACON: SQUAW PEAK DIGI W7EI
2019-05-21 13:41:58 EDT: K9BIF-7>ID: K9BIF-7 BPQ Net/Rom Switch
2019-05-21 13:42:00 EDT: WB2ZII>ID: WB2ZII/R RELAY/R WIDE/R TRACE/R WIDEn-n/R TRACEn-n/R
2019-05-21 13:42:05 EDT: HG1DFB-8>ID: HG1DFB/R
2019-05-21 13:42:06 EDT: KC9BOZ-15>ID: KC9BOZ/R
2019-05-21 13:42:00 EDT: N9LYA-8>ID: Node: N9LYA - OPEN-NET - APRS & BBS NETWORK NODE LYANOD/N9LYA-8 Mitchell, IN Lawrence County - MidWest HF Skipnet Hub.
2019-05-21 13:42:01 EDT: KC8KPM-7>ID: KC8KPM BPQ Net/Rom Switch, Battle Creek Michigan.
2019-05-21 13:42:02 EDT: SM5RVH-15>BEACON: SM5RVH-14 - HF Packet - Mailbox
2019-05-21 13:42:03 EDT: ERINB>BEACON: Duckabush Valley on OIDAR HILL....K7IDX
2019-05-21 13:42:03 EDT: JUPITR>ID: JUPITR/R
2019-05-21 13:42:03 EDT: NC6J-4>ID: NC6J BPQ Packet Node in Sacramento, CA
2019-05-21 13:42:04 EDT: W2AEE>ID: W2AEE/R RELAY/R WIDE/R TRACE/R TRACEn-n/R WIDEn-n/R
2019-05-21 13:42:05 EDT: W9MKS-15>ID: W9MKS-15/R SRRC/D W9MKS-1/B W9MKS-7/N
2019-05-21 13:42:06 EDT: SM4DWP-2>ID: SM4DWP/R
2019-05-21 13:42:07 EDT: F5ZVI>UIDIGI: UIDIGI 1.9
2019-05-21 13:42:08 EDT: BLKMTN>BEACON: Black Mt Digi KA7SHX
2019-05-21 13:42:16 EDT: ED2ZAD-3>BEACON: Asociacion Radioaficionados Bilbainos -
2019-05-21 13:42:18 EDT: N3KTX-3>BEACON: MasonDixon A.P.R.S. Group at 146.895- with IRLP 7070
2019-05-21 13:42:19 EDT: WA7RVV-8>ID: WA7RVV-8/R BLACKT/D NONE/B
2019-05-21 13:42:25 EDT: N6ZX>BEACON: N6ZX Kings Mt. ARC, bbs KMBBS, KaNode WOODY, knet WBAY
2019-05-21 13:42:27 EDT: DK4SDR-3>UIDIGI: UIDIGI 1.9
2019-05-21 13:42:27 EDT: 9A3XK>BEACON: CRLNet.108 - SysOp 9a3XK & 9a7kxp-Internet via DJWIRELES http://djw.hr/
2019-05-21 13:42:27 EDT: WHTNY>BEACON: KD5DMT-5 APRS Digipeater
2019-05-21 13:42:30 EDT: W8UKE-1>UIDIGI: UIDIGI 1.9
2019-05-21 13:42:35 EDT: KE0AE>BEACON: Genoa, Colo. WX/APRS Digi Station Voice 147.060 PL 103.5
2019-05-21 13:42:07 EDT: W4NN-1>BEACON: W4NN-1 Wn EARS DIGI EGLIN AFB FL
2019-05-21 13:42:08 EDT: WB2SNN-15>ID: WB2SNN-15/R WB2SNN-1/B
2019-05-21 13:42:12 EDT: KB9PPX-6>ID: Network Node (INCBCY)
2019-05-21 13:42:14 EDT: JAYUYA>BEACON: KP4IA APRS DIGI EL CACIQUE - JAYUYA - KP4IA-3 PBBS 144.390 MHz
2019-05-21 13:42:16 EDT: K8QIK-11>ID: Network node (HEBSW1)
2019-05-21 13:42:16 EDT: IW2FCH-3>BEACON: OP. ANTONIO CRLNet.045
2019-05-21 13:42:19 EDT: N0PBA-1>UIDIGI: UIDIGI 1.9
2019-05-21 13:42:19 EDT: N3DXC-2>BEACON: Kinter Hill IGate http://aprs.serveftp.com
2019-05-21 13:42:23 EDT: W0ZRT-7>UIDIGI: UIDIGI 1.9
2019-05-21 13:42:36 EDT: NC6J-1>ID: NC6J BPQ Packet Node in Sacramento, CA
2019-05-21 13:42:39 EDT: 9A3XK>BEACON: Power 9W Gain 3dB Height 240m Ant omni
2019-05-21 13:42:42 EDT: VK5RLH-1>UIDIGI: UIDIGI 1.9
2019-05-21 13:42:48 EDT: W2WCR-2>UIDIGI: UIDIGI 1.9
2019-05-21 13:42:48 EDT: W0OFK-4>BEACON: 146.730- *111111z4201.88N/09721.45WrT131 Net 7:30pm Mon EVARC
2019-05-21 13:42:53 EDT: KK7DO-1>BEACON: 145.430- PL 123.0 Repeater
2019-05-21 13:42:53 EDT: YM2IMT>UIDIGI: UIDIGI 1.9
2019-05-21 13:42:54 EDT: N0QK-1>ID: N0QK/R
2019-05-21 13:43:00 EDT: WX6HNX-6>BEACON: National Weather Service remote weather station Huron, CA
2019-05-21 13:43:01 EDT: KB8UVN-7>ID: Network node (JTSW1)
2019-05-21 13:43:05 EDT: VE7JP>BEACON: VE7CVA-3 MOBILE EMCOM DIGI
< previous
FAQ · Blog · Discussion group · Linking to aprs.fi · AIS sites · Service status · Database statistics · Advertising on aprs.fi · Technical details · API · Change log · Planned changes · Credits and thanks · Terms Of Service · iPhone/iPad APRS